sensor_id;sensor_type;location;lat;lon;timestamp;P1;durP1;ratioP1;P2;durP2;ratioP2
21202;SDS011;10759;51.982;9.232;2022-09-16T00:01:08;3.30;;;1.50;;
21202;SDS011;10759;51.982;9.232;2022-09-16T00:03:38;2.22;;;1.00;;
21202;SDS011;10759;51.982;9.232;2022-09-16T00:06:06;4.78;;;1.27;;
21202;SDS011;10759;51.982;9.232;2022-09-16T00:08:44;2.47;;;0.95;;
21202;SDS011;10759;51.982;9.232;2022-09-16T00:11:14;4.32;;;1.30;;
21202;SDS011;10759;51.982;9.232;2022-09-16T00:13:42;4.55;;;1.15;;
21202;SDS011;10759;51.982;9.232;2022-09-16T00:16:15;4.70;;;1.02;;
21202;SDS011;10759;51.982;9.232;2022-09-16T00:18:45;2.67;;;1.10;;
21202;SDS011;10759;51.982;9.232;2022-09-16T00:21:13;2.60;;;0.90;;
21202;SDS011;10759;51.982;9.232;2022-09-16T00:23:41;1.85;;;0.88;;
21202;SDS011;10759;51.982;9.232;2022-09-16T00:26:09;3.30;;;0.93;;
21202;SDS011;10759;51.982;9.232;2022-09-16T00:28:39;6.43;;;1.40;;
21202;SDS011;10759;51.982;9.232;2022-09-16T00:31:07;4.07;;;1.10;;
21202;SDS011;10759;51.982;9.232;2022-09-16T00:33:35;3.13;;;1.10;;
21202;SDS011;10759;51.982;9.232;2022-09-16T00:36:04;3.00;;;0.93;;
21202;SDS011;10759;51.982;9.232;2022-09-16T00:38:33;4.38;;;1.20;;
21202;SDS011;10759;51.982;9.232;2022-09-16T00:41:01;2.88;;;0.90;;
21202;SDS011;10759;51.982;9.232;2022-09-16T00:46:24;3.00;;;1.23;;
21202;SDS011;10759;51.982;9.232;2022-09-16T00:48:56;5.75;;;2.28;;
21202;SDS011;10759;51.982;9.232;2022-09-16T00:51:25;2.95;;;1.17;;
21202;SDS011;10759;51.982;9.232;2022-09-16T00:53:55;3.00;;;1.10;;
21202;SDS011;10759;51.982;9.232;2022-09-16T00:56:28;1.63;;;0.90;;
21202;SDS011;10759;51.982;9.232;2022-09-16T00:59:01;2.22;;;1.00;;
21202;SDS011;10759;51.982;9.232;2022-09-16T01:01:35;2.88;;;1.40;;
21202;SDS011;10759;51.982;9.232;2022-09-16T01:04:05;2.40;;;1.25;;
21202;SDS011;10759;51.982;9.232;2022-09-16T01:06:38;3.65;;;1.45;;
21202;SDS011;10759;51.982;9.232;2022-09-16T01:09:06;1.58;;;0.80;;
21202;SDS011;10759;51.982;9.232;2022-09-16T01:11:35;3.15;;;1.20;;
21202;SDS011;10759;51.982;9.232;2022-09-16T01:14:03;3.03;;;1.40;;
21202;SDS011;10759;51.982;9.232;2022-09-16T01:16:49;3.30;;;1.55;;
21202;SDS011;10759;51.982;9.232;2022-09-16T01:19:31;2.03;;;1.40;;
21202;SDS011;10759;51.982;9.232;2022-09-16T01:22:09;4.43;;;2.35;;
21202;SDS011;10759;51.982;9.232;2022-09-16T01:24:49;2.95;;;1.20;;
21202;SDS011;10759;51.982;9.232;2022-09-16T01:27:28;3.80;;;1.50;;
21202;SDS011;10759;51.982;9.232;2022-09-16T01:33:22;3.35;;;1.42;;
21202;SDS011;10759;51.982;9.232;2022-09-16T01:36:03;3.75;;;1.83;;
21202;SDS011;10759;51.982;9.232;2022-09-16T01:38:48;3.20;;;1.45;;
21202;SDS011;10759;51.982;9.232;2022-09-16T01:41:29;3.05;;;1.83;;
21202;SDS011;10759;51.982;9.232;2022-09-16T01:44:08;4.85;;;1.30;;
21202;SDS011;10759;51.982;9.232;2022-09-16T01:46:45;5.47;;;1.95;;
21202;SDS011;10759;51.982;9.232;2022-09-16T01:49:19;3.80;;;1.58;;
21202;SDS011;10759;51.982;9.232;2022-09-16T01:51:53;4.95;;;1.13;;
21202;SDS011;10759;51.982;9.232;2022-09-16T01:54:34;3.28;;;1.92;;
21202;SDS011;10759;51.982;9.232;2022-09-16T01:57:09;2.28;;;1.27;;
21202;SDS011;10759;51.982;9.232;2022-09-16T01:59:45;3.40;;;1.70;;
21202;SDS011;10759;51.982;9.232;2022-09-16T02:02:20;3.35;;;1.60;;
21202;SDS011;10759;51.982;9.232;2022-09-16T02:04:54;2.17;;;1.55;;
21202;SDS011;10759;51.982;9.232;2022-09-16T02:12:25;2.45;;;1.05;;
21202;SDS011;10759;51.982;9.232;2022-09-16T02:14:58;3.63;;;1.42;;
21202;SDS011;10759;51.982;9.232;2022-09-16T02:17:32;3.78;;;1.30;;
21202;SDS011;10759;51.982;9.232;2022-09-16T02:20:05;2.95;;;1.40;;
21202;SDS011;10759;51.982;9.232;2022-09-16T02:22:36;2.92;;;1.13;;
21202;SDS011;10759;51.982;9.232;2022-09-16T02:25:07;2.85;;;1.42;;
21202;SDS011;10759;51.982;9.232;2022-09-16T02:27:39;2.70;;;1.40;;
21202;SDS011;10759;51.982;9.232;2022-09-16T02:30:11;3.47;;;1.45;;
21202;SDS011;10759;51.982;9.232;2022-09-16T02:32:45;3.03;;;1.30;;
21202;SDS011;10759;51.982;9.232;2022-09-16T02:35:17;2.80;;;1.23;;
21202;SDS011;10759;51.982;9.232;2022-09-16T02:40:17;11.10;;;2.03;;
21202;SDS011;10759;51.982;9.232;2022-09-16T02:42:51;6.22;;;2.00;;
21202;SDS011;10759;51.982;9.232;2022-09-16T02:45:19;2.05;;;1.02;;
21202;SDS011;10759;51.982;9.232;2022-09-16T02:47:53;3.70;;;1.05;;
21202;SDS011;10759;51.982;9.232;2022-09-16T02:50:29;3.88;;;1.25;;
21202;SDS011;10759;51.982;9.232;2022-09-16T02:53:08;3.40;;;1.20;;
21202;SDS011;10759;51.982;9.232;2022-09-16T02:55:48;3.22;;;1.33;;
21202;SDS011;10759;51.982;9.232;2022-09-16T02:58:21;2.20;;;1.10;;
21202;SDS011;10759;51.982;9.232;2022-09-16T03:00:50;4.20;;;1.50;;
21202;SDS011;10759;51.982;9.232;2022-09-16T03:03:22;3.40;;;1.10;;
21202;SDS011;10759;51.982;9.232;2022-09-16T03:08:42;2.47;;;1.30;;
21202;SDS011;10759;51.982;9.232;2022-09-16T03:11:22;4.90;;;1.53;;
21202;SDS011;10759;51.982;9.232;2022-09-16T03:14:11;3.45;;;1.23;;
21202;SDS011;10759;51.982;9.232;2022-09-16T03:16:49;2.47;;;1.40;;
21202;SDS011;10759;51.982;9.232;2022-09-16T03:19:27;1.10;;;1.00;;
21202;SDS011;10759;51.982;9.232;2022-09-16T03:22:04;6.03;;;1.30;;
21202;SDS011;10759;51.982;9.232;2022-09-16T03:24:41;3.78;;;1.33;;
21202;SDS011;10759;51.982;9.232;2022-09-16T03:27:18;2.65;;;1.27;;
21202;SDS011;10759;51.982;9.232;2022-09-16T03:29:56;3.78;;;1.40;;
21202;SDS011;10759;51.982;9.232;2022-09-16T03:32:30;1.48;;;1.20;;
21202;SDS011;10759;51.982;9.232;2022-09-16T03:35:04;3.47;;;1.10;;
21202;SDS011;10759;51.982;9.232;2022-09-16T03:37:36;4.43;;;1.50;;
21202;SDS011;10759;51.982;9.232;2022-09-16T03:40:07;3.65;;;1.40;;
21202;SDS011;10759;51.982;9.232;2022-09-16T03:42:37;5.85;;;1.52;;
21202;SDS011;10759;51.982;9.232;2022-09-16T03:45:06;3.22;;;1.60;;
21202;SDS011;10759;51.982;9.232;2022-09-16T03:47:36;3.03;;;1.60;;
21202;SDS011;10759;51.982;9.232;2022-09-16T03:50:06;3.75;;;1.50;;
21202;SDS011;10759;51.982;9.232;2022-09-16T03:52:34;3.00;;;1.42;;
21202;SDS011;10759;51.982;9.232;2022-09-16T03:55:02;3.50;;;1.45;;
21202;SDS011;10759;51.982;9.232;2022-09-16T03:57:31;5.70;;;1.40;;
21202;SDS011;10759;51.982;9.232;2022-09-16T03:59:59;3.22;;;1.40;;
21202;SDS011;10759;51.982;9.232;2022-09-16T04:02:36;2.38;;;1.23;;
21202;SDS011;10759;51.982;9.232;2022-09-16T04:05:07;2.72;;;1.27;;
21202;SDS011;10759;51.982;9.232;2022-09-16T04:10:03;4.75;;;1.77;;
21202;SDS011;10759;51.982;9.232;2022-09-16T04:12:32;2.80;;;1.60;;
21202;SDS011;10759;51.982;9.232;2022-09-16T04:15:00;3.15;;;1.63;;
21202;SDS011;10759;51.982;9.232;2022-09-16T04:17:30;2.92;;;1.60;;
21202;SDS011;10759;51.982;9.232;2022-09-16T04:19:57;7.32;;;2.38;;
21202;SDS011;10759;51.982;9.232;2022-09-16T04:22:28;2.78;;;1.77;;
21202;SDS011;10759;51.982;9.232;2022-09-16T04:24:56;6.20;;;2.40;;
21202;SDS011;10759;51.982;9.232;2022-09-16T04:27:25;4.38;;;2.38;;
21202;SDS011;10759;51.982;9.232;2022-09-16T04:29:53;3.90;;;2.00;;
21202;SDS011;10759;51.982;9.232;2022-09-16T04:32:21;7.95;;;2.13;;
21202;SDS011;10759;51.982;9.232;2022-09-16T04:34:50;3.00;;;2.38;;
21202;SDS011;10759;51.982;9.232;2022-09-16T04:37:18;4.28;;;2.13;;
21202;SDS011;10759;51.982;9.232;2022-09-16T04:39:47;4.82;;;2.53;;
21202;SDS011;10759;51.982;9.232;2022-09-16T04:42:15;4.22;;;2.33;;
21202;SDS011;10759;51.982;9.232;2022-09-16T04:44:43;2.78;;;2.00;;
21202;SDS011;10759;51.982;9.232;2022-09-16T04:47:11;4.88;;;2.25;;
21202;SDS011;10759;51.982;9.232;2022-09-16T04:49:39;3.45;;;2.03;;
21202;SDS011;10759;51.982;9.232;2022-09-16T04:52:07;4.70;;;2.45;;
21202;SDS011;10759;51.982;9.232;2022-09-16T04:54:36;3.88;;;2.47;;
21202;SDS011;10759;51.982;9.232;2022-09-16T04:57:05;8.30;;;2.78;;
21202;SDS011;10759;51.982;9.232;2022-09-16T04:59:33;6.70;;;2.50;;
21202;SDS011;10759;51.982;9.232;2022-09-16T05:02:01;4.32;;;2.30;;
21202;SDS011;10759;51.982;9.232;2022-09-16T05:04:30;5.78;;;2.53;;
21202;SDS011;10759;51.982;9.232;2022-09-16T05:06:58;2.63;;;2.08;;
21202;SDS011;10759;51.982;9.232;2022-09-16T05:09:26;5.05;;;2.67;;
21202;SDS011;10759;51.982;9.232;2022-09-16T05:11:54;3.15;;;1.90;;
21202;SDS011;10759;51.982;9.232;2022-09-16T05:14:23;3.15;;;2.00;;
21202;SDS011;10759;51.982;9.232;2022-09-16T05:16:51;3.30;;;1.92;;
21202;SDS011;10759;51.982;9.232;2022-09-16T05:19:20;2.85;;;2.22;;
21202;SDS011;10759;51.982;9.232;2022-09-16T05:21:48;4.63;;;1.63;;
21202;SDS011;10759;51.982;9.232;2022-09-16T05:24:16;2.17;;;1.98;;
21202;SDS011;10759;51.982;9.232;2022-09-16T05:26:44;3.63;;;2.13;;
21202;SDS011;10759;51.982;9.232;2022-09-16T05:29:13;6.10;;;2.20;;
21202;SDS011;10759;51.982;9.232;2022-09-16T05:31:44;4.40;;;2.03;;
21202;SDS011;10759;51.982;9.232;2022-09-16T05:34:14;2.70;;;2.30;;
21202;SDS011;10759;51.982;9.232;2022-09-16T05:36:43;3.67;;;1.85;;
21202;SDS011;10759;51.982;9.232;2022-09-16T05:39:13;2.97;;;2.20;;
21202;SDS011;10759;51.982;9.232;2022-09-16T05:41:52;4.05;;;1.77;;
21202;SDS011;10759;51.982;9.232;2022-09-16T05:44:21;3.00;;;2.15;;
21202;SDS011;10759;51.982;9.232;2022-09-16T05:46:51;4.60;;;1.98;;
21202;SDS011;10759;51.982;9.232;2022-09-16T05:49:19;3.85;;;2.05;;
21202;SDS011;10759;51.982;9.232;2022-09-16T05:51:48;4.10;;;2.28;;
21202;SDS011;10759;51.982;9.232;2022-09-16T05:54:17;2.33;;;1.80;;
21202;SDS011;10759;51.982;9.232;2022-09-16T05:56:46;3.05;;;2.08;;
21202;SDS011;10759;51.982;9.232;2022-09-16T05:59:14;2.70;;;1.80;;
21202;SDS011;10759;51.982;9.232;2022-09-16T06:01:43;3.35;;;1.95;;
21202;SDS011;10759;51.982;9.232;2022-09-16T06:04:13;3.40;;;2.28;;
21202;SDS011;10759;51.982;9.232;2022-09-16T06:06:42;4.40;;;2.10;;
21202;SDS011;10759;51.982;9.232;2022-09-16T06:09:12;2.83;;;1.77;;
21202;SDS011;10759;51.982;9.232;2022-09-16T06:11:43;5.63;;;2.45;;
21202;SDS011;10759;51.982;9.232;2022-09-16T06:14:13;2.90;;;2.10;;
21202;SDS011;10759;51.982;9.232;2022-09-16T06:16:41;4.13;;;2.42;;
21202;SDS011;10759;51.982;9.232;2022-09-16T06:19:11;4.32;;;2.70;;
21202;SDS011;10759;51.982;9.232;2022-09-16T06:21:42;4.63;;;2.60;;
21202;SDS011;10759;51.982;9.232;2022-09-16T06:24:11;5.65;;;2.60;;
21202;SDS011;10759;51.982;9.232;2022-09-16T06:26:40;7.32;;;2.80;;
21202;SDS011;10759;51.982;9.232;2022-09-16T06:29:10;3.42;;;2.67;;
21202;SDS011;10759;51.982;9.232;2022-09-16T06:31:39;3.85;;;2.95;;
21202;SDS011;10759;51.982;9.232;2022-09-16T06:34:07;5.13;;;2.63;;
21202;SDS011;10759;51.982;9.232;2022-09-16T06:36:41;3.42;;;2.20;;
21202;SDS011;10759;51.982;9.232;2022-09-16T06:39:11;3.42;;;2.03;;
21202;SDS011;10759;51.982;9.232;2022-09-16T06:41:40;4.72;;;2.38;;
21202;SDS011;10759;51.982;9.232;2022-09-16T06:44:08;4.45;;;2.78;;
21202;SDS011;10759;51.982;9.232;2022-09-16T06:46:36;4.95;;;2.75;;
21202;SDS011;10759;51.982;9.232;2022-09-16T06:49:05;4.45;;;2.88;;
21202;SDS011;10759;51.982;9.232;2022-09-16T06:51:33;4.13;;;3.13;;
21202;SDS011;10759;51.982;9.232;2022-09-16T06:54:05;5.88;;;2.83;;
21202;SDS011;10759;51.982;9.232;2022-09-16T06:56:34;5.38;;;2.28;;
21202;SDS011;10759;51.982;9.232;2022-09-16T06:59:04;8.00;;;2.63;;
21202;SDS011;10759;51.982;9.232;2022-09-16T07:01:32;4.20;;;2.42;;
21202;SDS011;10759;51.982;9.232;2022-09-16T07:04:01;4.57;;;2.60;;
21202;SDS011;10759;51.982;9.232;2022-09-16T07:06:31;6.28;;;3.15;;
21202;SDS011;10759;51.982;9.232;2022-09-16T07:09:21;5.38;;;2.67;;
21202;SDS011;10759;51.982;9.232;2022-09-16T07:11:49;6.50;;;3.22;;
21202;SDS011;10759;51.982;9.232;2022-09-16T07:14:17;5.90;;;2.80;;
21202;SDS011;10759;51.982;9.232;2022-09-16T07:16:45;5.03;;;2.88;;
21202;SDS011;10759;51.982;9.232;2022-09-16T07:19:14;4.40;;;2.92;;
21202;SDS011;10759;51.982;9.232;2022-09-16T07:21:42;4.65;;;2.70;;
21202;SDS011;10759;51.982;9.232;2022-09-16T07:24:10;4.75;;;2.58;;
21202;SDS011;10759;51.982;9.232;2022-09-16T07:26:41;4.25;;;2.30;;
21202;SDS011;10759;51.982;9.232;2022-09-16T07:29:11;3.60;;;2.30;;
21202;SDS011;10759;51.982;9.232;2022-09-16T07:31:40;4.53;;;2.28;;
21202;SDS011;10759;51.982;9.232;2022-09-16T07:34:09;2.55;;;2.03;;
21202;SDS011;10759;51.982;9.232;2022-09-16T07:36:39;3.08;;;1.95;;
21202;SDS011;10759;51.982;9.232;2022-09-16T07:39:09;4.32;;;1.80;;
21202;SDS011;10759;51.982;9.232;2022-09-16T07:41:39;3.58;;;1.70;;
21202;SDS011;10759;51.982;9.232;2022-09-16T07:44:10;2.17;;;1.75;;
21202;SDS011;10759;51.982;9.232;2022-09-16T07:46:40;2.45;;;1.35;;
21202;SDS011;10759;51.982;9.232;2022-09-16T07:49:09;4.28;;;1.60;;
21202;SDS011;10759;51.982;9.232;2022-09-16T07:51:39;4.15;;;1.48;;
21202;SDS011;10759;51.982;9.232;2022-09-16T07:54:08;2.20;;;1.40;;
21202;SDS011;10759;51.982;9.232;2022-09-16T07:56:39;3.65;;;1.35;;
21202;SDS011;10759;51.982;9.232;2022-09-16T07:59:10;2.33;;;1.63;;
21202;SDS011;10759;51.982;9.232;2022-09-16T08:01:44;2.10;;;1.30;;
21202;SDS011;10759;51.982;9.232;2022-09-16T08:04:13;2.80;;;1.60;;
21202;SDS011;10759;51.982;9.232;2022-09-16T08:06:41;2.67;;;1.55;;
21202;SDS011;10759;51.982;9.232;2022-09-16T08:09:09;2.75;;;1.30;;
21202;SDS011;10759;51.982;9.232;2022-09-16T08:12:00;4.50;;;1.98;;
21202;SDS011;10759;51.982;9.232;2022-09-16T08:14:30;3.45;;;1.70;;
21202;SDS011;10759;51.982;9.232;2022-09-16T08:16:58;4.85;;;1.90;;
21202;SDS011;10759;51.982;9.232;2022-09-16T08:19:27;4.05;;;2.10;;
21202;SDS011;10759;51.982;9.232;2022-09-16T08:21:55;4.03;;;2.28;;
21202;SDS011;10759;51.982;9.232;2022-09-16T08:24:23;2.60;;;1.65;;
21202;SDS011;10759;51.982;9.232;2022-09-16T08:26:51;5.97;;;2.03;;
21202;SDS011;10759;51.982;9.232;2022-09-16T08:29:21;5.43;;;2.00;;
21202;SDS011;10759;51.982;9.232;2022-09-16T08:31:51;4.80;;;2.10;;
21202;SDS011;10759;51.982;9.232;2022-09-16T08:34:19;5.78;;;1.67;;
21202;SDS011;10759;51.982;9.232;2022-09-16T08:36:47;2.95;;;1.52;;
21202;SDS011;10759;51.982;9.232;2022-09-16T08:39:15;4.07;;;1.90;;
21202;SDS011;10759;51.982;9.232;2022-09-16T08:41:47;4.78;;;1.83;;
21202;SDS011;10759;51.982;9.232;2022-09-16T08:44:36;3.10;;;1.40;;
21202;SDS011;10759;51.982;9.232;2022-09-16T08:47:15;4.13;;;1.40;;
21202;SDS011;10759;51.982;9.232;2022-09-16T08:49:53;4.32;;;1.63;;
21202;SDS011;10759;51.982;9.232;2022-09-16T08:52:27;4.15;;;1.42;;
21202;SDS011;10759;51.982;9.232;2022-09-16T08:54:58;3.00;;;1.75;;
21202;SDS011;10759;51.982;9.232;2022-09-16T08:57:29;2.88;;;1.30;;
21202;SDS011;10759;51.982;9.232;2022-09-16T09:00:04;4.68;;;1.60;;
21202;SDS011;10759;51.982;9.232;2022-09-16T09:02:37;3.13;;;1.40;;
21202;SDS011;10759;51.982;9.232;2022-09-16T09:05:13;2.80;;;1.10;;
21202;SDS011;10759;51.982;9.232;2022-09-16T09:07:48;2.40;;;1.30;;
21202;SDS011;10759;51.982;9.232;2022-09-16T09:10:35;5.25;;;1.20;;
21202;SDS011;10759;51.982;9.232;2022-09-16T09:13:11;5.65;;;1.50;;
21202;SDS011;10759;51.982;9.232;2022-09-16T09:15:52;3.60;;;1.53;;
21202;SDS011;10759;51.982;9.232;2022-09-16T09:18:29;3.63;;;1.02;;
21202;SDS011;10759;51.982;9.232;2022-09-16T09:21:09;3.80;;;1.93;;
21202;SDS011;10759;51.982;9.232;2022-09-16T09:23:49;4.15;;;1.50;;
21202;SDS011;10759;51.982;9.232;2022-09-16T09:26:33;5.35;;;1.42;;
21202;SDS011;10759;51.982;9.232;2022-09-16T09:29:18;4.43;;;1.70;;
21202;SDS011;10759;51.982;9.232;2022-09-16T09:32:11;2.35;;;0.95;;
21202;SDS011;10759;51.982;9.232;2022-09-16T09:34:54;5.60;;;1.33;;
21202;SDS011;10759;51.982;9.232;2022-09-16T09:37:36;4.50;;;1.33;;
21202;SDS011;10759;51.982;9.232;2022-09-16T09:40:22;3.42;;;1.00;;
21202;SDS011;10759;51.982;9.232;2022-09-16T09:43:01;4.13;;;1.48;;
21202;SDS011;10759;51.982;9.232;2022-09-16T09:45:36;4.18;;;1.33;;
21202;SDS011;10759;51.982;9.232;2022-09-16T09:48:11;6.03;;;1.33;;
21202;SDS011;10759;51.982;9.232;2022-09-16T09:50:45;6.35;;;1.40;;
21202;SDS011;10759;51.982;9.232;2022-09-16T09:55:46;6.65;;;1.48;;
21202;SDS011;10759;51.982;9.232;2022-09-16T09:58:18;6.05;;;1.85;;
21202;SDS011;10759;51.982;9.232;2022-09-16T10:00:51;4.50;;;1.42;;
21202;SDS011;10759;51.982;9.232;2022-09-16T10:03:23;5.95;;;1.52;;
21202;SDS011;10759;51.982;9.232;2022-09-16T10:05:52;5.78;;;1.95;;
21202;SDS011;10759;51.982;9.232;2022-09-16T10:08:22;8.35;;;4.47;;
21202;SDS011;10759;51.982;9.232;2022-09-16T10:10:54;3.90;;;1.23;;
21202;SDS011;10759;51.982;9.232;2022-09-16T10:13:24;6.57;;;1.50;;
21202;SDS011;10759;51.982;9.232;2022-09-16T10:16:05;8.55;;;1.80;;
21202;SDS011;10759;51.982;9.232;2022-09-16T10:18:37;9.02;;;4.07;;
21202;SDS011;10759;51.982;9.232;2022-09-16T10:21:07;7.35;;;3.60;;
21202;SDS011;10759;51.982;9.232;2022-09-16T10:23:38;5.28;;;2.15;;
21202;SDS011;10759;51.982;9.232;2022-09-16T10:26:15;4.90;;;1.63;;
21202;SDS011;10759;51.982;9.232;2022-09-16T10:28:52;4.40;;;1.10;;
21202;SDS011;10759;51.982;9.232;2022-09-16T10:31:22;6.63;;;1.30;;
21202;SDS011;10759;51.982;9.232;2022-09-16T10:33:59;5.55;;;1.55;;
21202;SDS011;10759;51.982;9.232;2022-09-16T10:36:31;2.95;;;1.70;;
21202;SDS011;10759;51.982;9.232;2022-09-16T10:39:00;5.13;;;1.17;;
21202;SDS011;10759;51.982;9.232;2022-09-16T10:41:31;4.25;;;1.40;;
21202;SDS011;10759;51.982;9.232;2022-09-16T10:44:02;4.75;;;1.00;;
21202;SDS011;10759;51.982;9.232;2022-09-16T10:46:48;5.10;;;1.83;;
21202;SDS011;10759;51.982;9.232;2022-09-16T10:49:21;4.45;;;1.52;;
21202;SDS011;10759;51.982;9.232;2022-09-16T10:51:54;4.97;;;1.45;;
21202;SDS011;10759;51.982;9.232;2022-09-16T10:54:23;4.90;;;1.40;;
21202;SDS011;10759;51.982;9.232;2022-09-16T10:56:53;4.97;;;1.63;;
21202;SDS011;10759;51.982;9.232;2022-09-16T10:59:21;5.70;;;1.52;;
21202;SDS011;10759;51.982;9.232;2022-09-16T11:01:52;6.07;;;0.88;;
21202;SDS011;10759;51.982;9.232;2022-09-16T11:04:33;5.50;;;1.45;;
21202;SDS011;10759;51.982;9.232;2022-09-16T11:07:17;5.47;;;1.30;;
21202;SDS011;10759;51.982;9.232;2022-09-16T11:09:56;5.20;;;1.00;;
21202;SDS011;10759;51.982;9.232;2022-09-16T11:12:39;7.38;;;1.30;;
21202;SDS011;10759;51.982;9.232;2022-09-16T11:15:20;6.13;;;1.60;;
21202;SDS011;10759;51.982;9.232;2022-09-16T11:18:00;2.67;;;1.23;;
21202;SDS011;10759;51.982;9.232;2022-09-16T11:20:54;5.07;;;1.30;;
21202;SDS011;10759;51.982;9.232;2022-09-16T11:23:38;5.78;;;0.90;;
21202;SDS011;10759;51.982;9.232;2022-09-16T11:26:18;4.82;;;1.08;;
21202;SDS011;10759;51.982;9.232;2022-09-16T11:29:01;3.85;;;1.23;;
21202;SDS011;10759;51.982;9.232;2022-09-16T11:31:42;4.38;;;1.17;;
21202;SDS011;10759;51.982;9.232;2022-09-16T11:34:22;5.90;;;3.22;;
21202;SDS011;10759;51.982;9.232;2022-09-16T11:37:13;6.70;;;1.50;;
21202;SDS011;10759;51.982;9.232;2022-09-16T11:39:50;3.90;;;1.08;;
21202;SDS011;10759;51.982;9.232;2022-09-16T11:42:30;5.90;;;1.58;;
21202;SDS011;10759;51.982;9.232;2022-09-16T11:45:04;3.28;;;1.30;;
21202;SDS011;10759;51.982;9.232;2022-09-16T11:47:47;8.43;;;1.38;;
21202;SDS011;10759;51.982;9.232;2022-09-16T11:50:27;3.97;;;1.15;;
21202;SDS011;10759;51.982;9.232;2022-09-16T11:53:13;4.65;;;1.25;;
21202;SDS011;10759;51.982;9.232;2022-09-16T11:56:10;3.75;;;1.30;;
21202;SDS011;10759;51.982;9.232;2022-09-16T11:58:42;6.25;;;1.73;;
21202;SDS011;10759;51.982;9.232;2022-09-16T12:01:14;3.55;;;1.30;;
21202;SDS011;10759;51.982;9.232;2022-09-16T12:03:54;4.25;;;1.55;;
21202;SDS011;10759;51.982;9.232;2022-09-16T12:06:30;2.00;;;1.13;;
21202;SDS011;10759;51.982;9.232;2022-09-16T12:09:09;4.22;;;1.50;;
21202;SDS011;10759;51.982;9.232;2022-09-16T12:11:41;8.68;;;2.75;;
21202;SDS011;10759;51.982;9.232;2022-09-16T12:14:12;2.90;;;1.25;;
21202;SDS011;10759;51.982;9.232;2022-09-16T12:16:47;4.38;;;1.00;;
21202;SDS011;10759;51.982;9.232;2022-09-16T12:19:21;6.25;;;1.30;;
21202;SDS011;10759;51.982;9.232;2022-09-16T12:21:53;6.53;;;1.00;;
21202;SDS011;10759;51.982;9.232;2022-09-16T12:24:29;3.45;;;0.90;;
21202;SDS011;10759;51.982;9.232;2022-09-16T12:27:03;5.35;;;1.45;;
21202;SDS011;10759;51.982;9.232;2022-09-16T12:29:37;5.68;;;1.20;;
21202;SDS011;10759;51.982;9.232;2022-09-16T12:32:11;3.22;;;1.15;;
21202;SDS011;10759;51.982;9.232;2022-09-16T12:34:43;3.58;;;1.30;;
21202;SDS011;10759;51.982;9.232;2022-09-16T12:37:21;4.00;;;1.30;;
21202;SDS011;10759;51.982;9.232;2022-09-16T12:40:00;4.82;;;1.40;;
21202;SDS011;10759;51.982;9.232;2022-09-16T12:45:51;4.75;;;1.88;;
21202;SDS011;10759;51.982;9.232;2022-09-16T12:48:40;3.38;;;1.30;;
21202;SDS011;10759;51.982;9.232;2022-09-16T12:51:22;5.00;;;1.63;;
21202;SDS011;10759;51.982;9.232;2022-09-16T12:54:29;7.05;;;1.17;;
21202;SDS011;10759;51.982;9.232;2022-09-16T12:57:35;1.48;;;1.10;;
21202;SDS011;10759;51.982;9.232;2022-09-16T13:00:15;5.07;;;1.08;;
21202;SDS011;10759;51.982;9.232;2022-09-16T13:02:47;3.55;;;1.20;;
21202;SDS011;10759;51.982;9.232;2022-09-16T13:05:23;3.33;;;1.60;;
21202;SDS011;10759;51.982;9.232;2022-09-16T13:07:59;3.50;;;3.05;;
21202;SDS011;10759;51.982;9.232;2022-09-16T13:10:31;2.38;;;1.50;;
21202;SDS011;10759;51.982;9.232;2022-09-16T13:13:26;2.30;;;1.10;;
21202;SDS011;10759;51.982;9.232;2022-09-16T13:15:59;0.70;;;0.50;;
21202;SDS011;10759;51.982;9.232;2022-09-16T13:21:11;0.88;;;0.50;;
21202;SDS011;10759;51.982;9.232;2022-09-16T13:23:51;0.93;;;0.80;;
21202;SDS011;10759;51.982;9.232;2022-09-16T13:26:36;1.65;;;0.75;;
21202;SDS011;10759;51.982;9.232;2022-09-16T13:31:53;3.05;;;1.30;;
21202;SDS011;10759;51.982;9.232;2022-09-16T13:34:27;0.93;;;0.45;;
21202;SDS011;10759;51.982;9.232;2022-09-16T13:36:55;1.63;;;0.50;;
21202;SDS011;10759;51.982;9.232;2022-09-16T13:39:27;3.65;;;0.70;;
21202;SDS011;10759;51.982;9.232;2022-09-16T13:42:08;2.20;;;0.90;;
21202;SDS011;10759;51.982;9.232;2022-09-16T13:44:41;2.28;;;0.50;;
21202;SDS011;10759;51.982;9.232;2022-09-16T13:47:16;1.95;;;0.65;;
21202;SDS011;10759;51.982;9.232;2022-09-16T13:49:56;3.15;;;0.70;;
21202;SDS011;10759;51.982;9.232;2022-09-16T13:52:28;2.45;;;0.90;;
21202;SDS011;10759;51.982;9.232;2022-09-16T13:57:45;1.90;;;0.80;;
21202;SDS011;10759;51.982;9.232;2022-09-16T14:00:28;2.05;;;0.70;;
21202;SDS011;10759;51.982;9.232;2022-09-16T14:03:23;4.15;;;1.10;;
21202;SDS011;10759;51.982;9.232;2022-09-16T14:06:24;3.33;;;0.80;;
21202;SDS011;10759;51.982;9.232;2022-09-16T14:09:16;2.85;;;1.02;;
21202;SDS011;10759;51.982;9.232;2022-09-16T14:11:55;3.85;;;0.90;;
21202;SDS011;10759;51.982;9.232;2022-09-16T14:14:30;5.65;;;1.42;;
21202;SDS011;10759;51.982;9.232;2022-09-16T14:17:19;4.90;;;1.00;;
21202;SDS011;10759;51.982;9.232;2022-09-16T14:19:51;6.07;;;1.40;;
21202;SDS011;10759;51.982;9.232;2022-09-16T14:22:25;4.20;;;1.25;;
21202;SDS011;10759;51.982;9.232;2022-09-16T14:24:54;5.43;;;1.27;;
21202;SDS011;10759;51.982;9.232;2022-09-16T14:27:42;3.20;;;0.90;;
21202;SDS011;10759;51.982;9.232;2022-09-16T14:30:12;4.40;;;1.10;;
21202;SDS011;10759;51.982;9.232;2022-09-16T14:32:43;4.03;;;1.48;;
21202;SDS011;10759;51.982;9.232;2022-09-16T14:35:14;4.72;;;1.13;;
21202;SDS011;10759;51.982;9.232;2022-09-16T14:37:46;4.93;;;1.02;;
21202;SDS011;10759;51.982;9.232;2022-09-16T14:40:18;5.25;;;1.42;;
21202;SDS011;10759;51.982;9.232;2022-09-16T14:42:51;4.00;;;1.15;;
21202;SDS011;10759;51.982;9.232;2022-09-16T14:45:21;3.90;;;0.98;;
21202;SDS011;10759;51.982;9.232;2022-09-16T14:47:51;5.90;;;1.40;;
21202;SDS011;10759;51.982;9.232;2022-09-16T14:50:22;4.22;;;1.00;;
21202;SDS011;10759;51.982;9.232;2022-09-16T14:52:53;4.72;;;1.30;;
21202;SDS011;10759;51.982;9.232;2022-09-16T14:55:23;3.80;;;1.10;;
21202;SDS011;10759;51.982;9.232;2022-09-16T14:57:52;4.05;;;1.13;;
21202;SDS011;10759;51.982;9.232;2022-09-16T15:00:21;4.45;;;1.17;;
21202;SDS011;10759;51.982;9.232;2022-09-16T15:02:53;5.90;;;1.27;;
21202;SDS011;10759;51.982;9.232;2022-09-16T15:05:25;3.60;;;1.20;;
21202;SDS011;10759;51.982;9.232;2022-09-16T15:08:01;4.38;;;1.35;;
21202;SDS011;10759;51.982;9.232;2022-09-16T15:10:40;3.58;;;1.10;;
21202;SDS011;10759;51.982;9.232;2022-09-16T15:13:18;5.18;;;1.23;;
21202;SDS011;10759;51.982;9.232;2022-09-16T15:15:49;3.40;;;1.23;;
21202;SDS011;10759;51.982;9.232;2022-09-16T15:18:24;4.07;;;1.67;;
21202;SDS011;10759;51.982;9.232;2022-09-16T15:20:58;7.82;;;1.80;;
21202;SDS011;10759;51.982;9.232;2022-09-16T15:23:31;4.68;;;1.35;;
21202;SDS011;10759;51.982;9.232;2022-09-16T15:26:06;3.85;;;0.90;;
21202;SDS011;10759;51.982;9.232;2022-09-16T15:28:47;3.80;;;0.90;;
21202;SDS011;10759;51.982;9.232;2022-09-16T15:31:29;5.72;;;1.17;;
21202;SDS011;10759;51.982;9.232;2022-09-16T15:34:02;3.65;;;1.10;;
21202;SDS011;10759;51.982;9.232;2022-09-16T15:36:36;5.03;;;1.30;;
21202;SDS011;10759;51.982;9.232;2022-09-16T15:39:19;5.15;;;3.80;;
21202;SDS011;10759;51.982;9.232;2022-09-16T15:42:00;3.47;;;1.30;;
21202;SDS011;10759;51.982;9.232;2022-09-16T15:44:31;2.85;;;1.15;;
21202;SDS011;10759;51.982;9.232;2022-09-16T15:47:03;2.33;;;1.15;;
21202;SDS011;10759;51.982;9.232;2022-09-16T15:49:34;5.15;;;1.10;;
21202;SDS011;10759;51.982;9.232;2022-09-16T15:52:06;4.15;;;1.13;;
21202;SDS011;10759;51.982;9.232;2022-09-16T15:54:37;3.35;;;1.00;;
21202;SDS011;10759;51.982;9.232;2022-09-16T15:57:20;2.47;;;0.90;;
21202;SDS011;10759;51.982;9.232;2022-09-16T15:59:57;4.38;;;1.02;;